createdAt,value
2019-02-21T00:00:52.399Z,5.31
2019-02-21T00:03:19.126Z,5.28
2019-02-21T00:05:45.886Z,5.38
2019-02-21T00:08:12.966Z,5.33
2019-02-21T00:10:40.086Z,5.29
2019-02-21T00:13:07.133Z,5.26
2019-02-21T00:15:33.995Z,5.25
2019-02-21T00:18:00.725Z,5.23
2019-02-21T00:20:27.771Z,5.17
2019-02-21T00:22:55.041Z,5.11
2019-02-21T00:25:29.038Z,5.05
2019-02-21T00:27:56.448Z,5.13
2019-02-21T00:30:34.598Z,5.04
2019-02-21T00:32:52.767Z,5.03
2019-02-21T00:35:19.491Z,5.07
2019-02-21T00:37:46.270Z,5.03
2019-02-21T00:40:13.000Z,4.99
2019-02-21T00:42:39.637Z,5.00
2019-02-21T00:45:06.504Z,5.06
2019-02-21T00:47:34.285Z,5.10
2019-02-21T00:50:00.921Z,5.15
2019-02-21T00:52:31.328Z,5.15
2019-02-21T00:54:57.589Z,5.20
2019-02-21T00:57:24.694Z,5.29
2019-02-21T00:59:52.301Z,5.29
2019-02-21T01:02:19.543Z,5.34
2019-02-21T01:04:46.607Z,5.42
2019-02-21T01:07:13.760Z,5.38
2019-02-21T01:09:53.751Z,5.38
2019-02-21T01:12:20.897Z,5.39
2019-02-21T01:14:47.977Z,5.48
2019-02-21T01:17:15.423Z,5.50
2019-02-21T01:19:43.036Z,5.51
2019-02-21T01:22:10.146Z,5.52
2019-02-21T01:24:37.730Z,5.55
2019-02-21T01:27:04.887Z,5.59
2019-02-21T01:29:32.389Z,5.70
2019-02-21T01:31:59.738Z,5.71
2019-02-21T01:34:26.907Z,5.71
2019-02-21T01:36:53.979Z,5.77
2019-02-21T01:39:21.553Z,5.83
2019-02-21T01:41:49.109Z,5.81
2019-02-21T01:44:16.200Z,5.78
2019-02-21T01:46:43.313Z,5.78
2019-02-21T01:49:10.555Z,5.75
2019-02-21T01:51:38.037Z,5.71
2019-02-21T01:54:05.160Z,5.68
2019-02-21T01:56:32.370Z,5.65
2019-02-21T01:58:59.831Z,5.63
2019-02-21T02:01:26.925Z,5.65
2019-02-21T02:03:54.070Z,5.64
2019-02-21T02:06:21.191Z,5.67
2019-02-21T02:08:48.308Z,5.71
2019-02-21T02:11:15.586Z,5.76
2019-02-21T02:13:42.679Z,5.81
2019-02-21T02:16:09.994Z,5.95
2019-02-21T02:18:37.508Z,6.07
2019-02-21T02:21:04.829Z,6.06
2019-02-21T02:23:32.356Z,6.01
2019-02-21T02:25:59.509Z,6.02
2019-02-21T02:28:26.611Z,6.04
2019-02-21T02:30:54.041Z,6.03
2019-02-21T02:33:21.199Z,6.03
2019-02-21T02:35:48.320Z,6.03
2019-02-21T02:38:15.435Z,6.00
2019-02-21T02:40:42.677Z,6.08
2019-02-21T02:43:09.822Z,6.11
2019-02-21T02:45:36.929Z,6.11
2019-02-21T02:48:04.043Z,6.11
2019-02-21T02:50:31.469Z,6.08
2019-02-21T02:52:59.414Z,6.14
2019-02-21T02:55:26.566Z,6.15
2019-02-21T02:57:53.634Z,6.15
2019-02-21T03:00:20.797Z,6.19
2019-02-21T03:02:47.940Z,6.25
2019-02-21T03:05:15.155Z,6.34
2019-02-21T03:07:42.269Z,6.37
2019-02-21T03:10:10.392Z,6.36
2019-02-21T03:12:49.657Z,6.39
2019-02-21T03:15:16.339Z,6.42
2019-02-21T03:17:43.267Z,6.44
2019-02-21T03:20:10.104Z,6.44
2019-02-21T03:22:36.909Z,6.51
2019-02-21T03:25:04.016Z,6.48
2019-02-21T03:27:30.863Z,6.49
2019-02-21T03:29:57.761Z,6.55
2019-02-21T03:32:24.502Z,6.56
2019-02-21T03:34:51.234Z,6.56
2019-02-21T03:37:18.065Z,6.63
2019-02-21T03:40:04.765Z,6.54
2019-02-21T03:42:31.998Z,6.60
2019-02-21T03:44:59.665Z,6.62
2019-02-21T03:47:27.195Z,6.64
2019-02-21T03:49:54.837Z,6.68
2019-02-21T03:52:21.935Z,6.68
2019-02-21T03:54:49.027Z,6.59
2019-02-21T03:57:16.203Z,6.64
2019-02-21T03:59:43.688Z,6.66
2019-02-21T04:02:10.982Z,6.61
2019-02-21T04:04:38.456Z,6.60
2019-02-21T04:07:05.544Z,6.67
2019-02-21T04:09:33.485Z,6.74
2019-02-21T04:12:01.037Z,6.70
2019-02-21T04:14:29.002Z,6.80
2019-02-21T04:19:48.604Z,6.78
2019-02-21T04:22:35.298Z,6.67
2019-02-21T04:25:02.069Z,6.74
2019-02-21T04:27:28.714Z,6.75
2019-02-21T04:29:55.453Z,6.61
2019-02-21T04:32:22.237Z,6.60
2019-02-21T04:34:49.244Z,6.57
2019-02-21T04:37:16.709Z,6.50
2019-02-21T04:39:43.695Z,6.48
2019-02-21T04:42:10.447Z,6.50
2019-02-21T04:44:37.111Z,6.43
2019-02-21T04:47:04.104Z,6.44
2019-02-21T04:49:30.975Z,6.46
2019-02-21T04:51:57.715Z,6.41
2019-02-21T04:54:24.718Z,6.46
2019-02-21T04:56:51.468Z,6.41
2019-02-21T04:59:18.317Z,6.51
2019-02-21T05:01:45.230Z,6.45
2019-02-21T05:04:11.991Z,6.47
2019-02-21T05:06:38.842Z,6.45
2019-02-21T05:09:07.523Z,6.47
2019-02-21T05:11:34.473Z,6.45
2019-02-21T05:14:01.437Z,6.46
2019-02-21T05:16:28.531Z,6.49
2019-02-21T05:18:55.265Z,6.41
2019-02-21T05:21:22.168Z,6.46
2019-02-21T05:23:49.320Z,6.51
2019-02-21T05:29:10.626Z,6.48
2019-02-21T05:34:37.310Z,6.46
2019-02-21T05:37:23.830Z,6.45
2019-02-21T05:40:10.543Z,6.43
2019-02-21T05:42:57.610Z,6.45
2019-02-21T05:45:32.085Z,6.35
2019-02-21T05:48:18.912Z,6.36
2019-02-21T05:51:05.690Z,6.34
2019-02-21T05:53:40.569Z,6.33
2019-02-21T05:56:27.004Z,6.34
2019-02-21T05:59:13.589Z,6.36
2019-02-21T06:01:59.997Z,6.35
2019-02-21T06:04:35.509Z,6.30
2019-02-21T06:07:41.501Z,6.31
2019-02-21T06:10:27.825Z,6.37
2019-02-21T06:13:14.723Z,6.34
2019-02-21T06:16:01.435Z,6.39
2019-02-21T06:18:48.119Z,6.29
2019-02-21T06:21:34.472Z,6.37
2019-02-21T06:24:29.345Z,6.34
2019-02-21T06:27:01.153Z,6.35
2019-02-21T06:29:47.466Z,6.40
2019-02-21T06:32:14.739Z,6.40
2019-02-21T06:34:43.134Z,6.47
2019-02-21T06:37:12.588Z,6.50
2019-02-21T06:39:38.796Z,6.57
2019-02-21T06:42:05.768Z,6.54
2019-02-21T06:44:32.635Z,6.57
2019-02-21T06:46:59.272Z,6.61
2019-02-21T06:49:32.440Z,6.59
2019-02-21T06:51:55.169Z,6.57
2019-02-21T06:54:22.551Z,6.68
2019-02-21T06:56:50.806Z,6.66
2019-02-21T06:59:17.698Z,6.74
2019-02-21T07:01:44.639Z,6.73
2019-02-21T07:04:11.371Z,6.84
2019-02-21T07:06:39.229Z,6.93
2019-02-21T07:09:06.858Z,6.95
2019-02-21T07:11:33.751Z,7.12
2019-02-21T07:14:01.035Z,7.08
2019-02-21T07:16:28.588Z,7.11
2019-02-21T07:18:55.407Z,7.13
2019-02-21T07:21:22.094Z,7.12
2019-02-21T07:23:49.101Z,7.17
2019-02-21T07:26:17.954Z,7.23
2019-02-21T07:28:44.889Z,7.30
2019-02-21T07:31:11.695Z,7.34
2019-02-21T07:33:38.580Z,7.39
2019-02-21T07:36:05.770Z,7.40
2019-02-21T07:38:32.756Z,7.46
2019-02-21T07:40:59.591Z,7.55
2019-02-21T07:43:26.508Z,7.48
2019-02-21T07:45:53.317Z,7.61
2019-02-21T07:48:20.473Z,7.63
2019-02-21T07:50:47.429Z,7.79
2019-02-21T07:53:14.078Z,7.87
2019-02-21T07:55:40.810Z,7.90
2019-02-21T07:58:07.669Z,7.87
2019-02-21T08:00:34.708Z,7.88
2019-02-21T08:03:02.129Z,7.99
2019-02-21T08:05:28.939Z,7.97
2019-02-21T08:07:56.051Z,8.01
2019-02-21T08:10:42.503Z,8.02
2019-02-21T08:13:09.591Z,7.97
2019-02-21T08:15:36.586Z,8.01
2019-02-21T08:18:03.499Z,7.95
2019-02-21T08:20:35.572Z,7.93
2019-02-21T08:23:02.845Z,7.95
2019-02-21T08:25:29.540Z,7.99
2019-02-21T08:27:56.661Z,7.93
2019-02-21T08:30:23.291Z,7.98
2019-02-21T08:32:59.473Z,7.95
2019-02-21T08:35:26.960Z,7.91
2019-02-21T08:37:53.726Z,7.87
2019-02-21T08:40:20.983Z,7.79
2019-02-21T08:42:48.041Z,7.80
2019-02-21T08:45:17.703Z,7.84
2019-02-21T08:47:44.053Z,7.78
2019-02-21T08:50:11.070Z,7.78
2019-02-21T08:52:46.679Z,7.76
2019-02-21T08:55:26.723Z,7.72
2019-02-21T08:57:54.162Z,7.75
2019-02-21T09:00:21.636Z,7.73
2019-02-21T09:02:49.199Z,7.76
2019-02-21T09:05:57.464Z,7.79
2019-02-21T09:08:33.089Z,7.78
2019-02-21T09:10:53.347Z,7.89
2019-02-21T09:13:20.457Z,7.96
2019-02-21T09:15:47.564Z,7.95
2019-02-21T09:18:14.825Z,8.00
2019-02-21T09:20:54.862Z,8.03
2019-02-21T09:23:21.602Z,8.14
2019-02-21T09:25:49.638Z,8.20
2019-02-21T09:28:17.326Z,8.12
2019-02-21T09:30:44.509Z,8.17
2019-02-21T09:33:33.854Z,8.23
2019-02-21T09:36:01.116Z,8.22
2019-02-21T09:38:28.786Z,8.27
2019-02-21T09:40:56.628Z,8.17
2019-02-21T09:43:24.031Z,8.21
2019-02-21T09:45:51.081Z,8.15
2019-02-21T09:48:18.425Z,8.15
2019-02-21T09:50:45.722Z,8.12
2019-02-21T09:53:13.136Z,8.15
2019-02-21T09:55:40.303Z,8.25
2019-02-21T09:58:07.426Z,8.32
2019-02-21T10:00:35.989Z,8.46
2019-02-21T10:03:03.650Z,8.56
2019-02-21T10:05:30.752Z,8.76
2019-02-21T10:07:57.781Z,8.84
2019-02-21T10:10:24.913Z,8.97
2019-02-21T10:12:51.763Z,9.12
2019-02-21T10:15:18.961Z,9.35
2019-02-21T10:17:46.445Z,9.34
2019-02-21T10:20:32.786Z,9.43
2019-02-21T10:22:59.604Z,9.41
2019-02-21T10:25:26.796Z,9.27
2019-02-21T10:27:54.483Z,9.24
2019-02-21T10:30:21.515Z,9.35
2019-02-21T10:32:48.622Z,9.50
2019-02-21T10:35:15.487Z,9.60
2019-02-21T10:37:42.655Z,9.62
2019-02-21T10:40:10.094Z,9.60
2019-02-21T10:42:36.864Z,9.72
2019-02-21T10:45:05.307Z,9.70
2019-02-21T10:47:32.462Z,9.86
2019-02-21T10:49:59.713Z,10.00
2019-02-21T10:52:26.383Z,10.02
2019-02-21T10:54:53.109Z,10.14
2019-02-21T10:57:19.848Z,10.14
2019-02-21T10:59:47.167Z,10.37
2019-02-21T11:02:15.338Z,10.47
2019-02-21T11:04:42.382Z,10.54
2019-02-21T11:07:10.023Z,10.81
2019-02-21T11:09:37.162Z,10.82
2019-02-21T11:12:03.984Z,11.18
2019-02-21T11:14:31.363Z,11.32
2019-02-21T11:16:58.203Z,11.34
2019-02-21T11:19:25.079Z,11.45
2019-02-21T11:21:51.765Z,11.59
2019-02-21T11:24:18.633Z,11.46
2019-02-21T11:26:45.645Z,11.71
2019-02-21T11:29:32.038Z,11.59
2019-02-21T11:31:58.771Z,11.53
2019-02-21T11:34:25.393Z,11.47
2019-02-21T11:36:52.709Z,11.42
2019-02-21T11:39:19.710Z,11.24
2019-02-21T11:41:46.439Z,11.10
2019-02-21T11:44:13.129Z,10.98
2019-02-21T11:46:39.983Z,11.06
2019-02-21T11:49:07.177Z,11.14
2019-02-21T11:51:34.061Z,11.17
2019-02-21T11:54:01.426Z,11.29
2019-02-21T11:56:28.156Z,11.20
2019-02-21T11:58:55.299Z,11.32
2019-02-21T12:01:22.123Z,11.32
2019-02-21T12:03:49.233Z,11.47
2019-02-21T12:06:16.392Z,11.52
2019-02-21T12:08:43.290Z,11.61
2019-02-21T12:11:10.313Z,11.80
2019-02-21T12:13:37.106Z,12.02
2019-02-21T12:16:23.669Z,12.28
2019-02-21T12:18:51.316Z,12.09
2019-02-21T12:21:18.387Z,12.29
2019-02-21T12:23:45.152Z,12.46
2019-02-21T12:26:24.779Z,12.35
2019-02-21T12:28:51.537Z,12.38
2019-02-21T12:31:18.168Z,12.18
2019-02-21T12:33:45.032Z,12.20
2019-02-21T12:36:11.873Z,12.28
2019-02-21T12:38:39.389Z,12.27
2019-02-21T12:41:06.454Z,12.25
2019-02-21T12:43:33.192Z,12.23
2019-02-21T12:46:00.299Z,12.05
2019-02-21T12:48:27.514Z,11.94
2019-02-21T12:50:54.273Z,11.86
2019-02-21T12:53:20.989Z,11.91
2019-02-21T12:55:47.739Z,11.91
2019-02-21T12:58:14.500Z,11.96
2019-02-21T13:00:41.683Z,11.92
2019-02-21T13:03:08.476Z,11.93
2019-02-21T13:05:41.034Z,11.95
2019-02-21T13:08:03.961Z,11.93
2019-02-21T13:10:30.820Z,11.88
2019-02-21T13:12:57.469Z,11.80
2019-02-21T13:15:44.175Z,11.68
2019-02-21T13:18:15.930Z,11.58
2019-02-21T13:20:39.747Z,11.54
2019-02-21T13:23:06.534Z,11.49
2019-02-21T13:25:33.177Z,11.47
2019-02-21T13:28:12.981Z,11.39
2019-02-21T13:30:40.471Z,11.42
2019-02-21T13:33:08.111Z,11.39
2019-02-21T13:35:35.257Z,11.37
2019-02-21T13:38:02.742Z,11.32
2019-02-21T13:40:29.837Z,11.36
2019-02-21T13:42:56.998Z,11.36
2019-02-21T13:45:24.080Z,11.36
2019-02-21T13:47:51.518Z,11.38
2019-02-21T13:50:19.129Z,11.45
2019-02-21T13:52:46.175Z,11.44
2019-02-21T13:55:13.712Z,11.52
2019-02-21T13:57:40.831Z,11.60
2019-02-21T14:00:28.960Z,11.59
2019-02-21T14:02:55.753Z,11.63
2019-02-21T14:05:22.383Z,11.58
2019-02-21T14:07:49.019Z,11.63
2019-02-21T14:10:15.803Z,11.60
2019-02-21T14:12:42.677Z,11.57
2019-02-21T14:15:28.973Z,11.44
2019-02-21T14:17:56.028Z,11.31
2019-02-21T14:20:23.069Z,11.09
2019-02-21T14:22:49.995Z,10.97
2019-02-21T14:25:16.856Z,10.88
2019-02-21T14:27:43.574Z,10.78
2019-02-21T14:30:12.664Z,10.70
2019-02-21T14:32:39.398Z,10.57
2019-02-21T14:35:07.639Z,10.38
2019-02-21T14:37:34.419Z,10.27
2019-02-21T14:40:01.329Z,10.22
2019-02-21T14:42:28.054Z,10.14
2019-02-21T14:44:54.828Z,10.09
2019-02-21T14:47:21.951Z,10.06
2019-02-21T14:49:48.600Z,10.06
2019-02-21T14:52:15.392Z,10.07
2019-02-21T14:54:42.226Z,10.14
2019-02-21T14:57:08.863Z,10.12
2019-02-21T14:59:36.026Z,10.12
2019-02-21T15:02:05.993Z,10.04
2019-02-21T15:04:31.664Z,10.00
2019-02-21T15:06:58.751Z,9.99
2019-02-21T15:09:25.642Z,10.00
2019-02-21T15:11:52.504Z,9.99
2019-02-21T15:14:19.367Z,10.00
2019-02-21T15:16:46.021Z,10.04
2019-02-21T15:19:12.927Z,10.04
2019-02-21T15:21:39.670Z,10.07
2019-02-21T15:24:06.960Z,10.05
2019-02-21T15:26:33.967Z,10.05
2019-02-21T15:29:00.952Z,10.13
2019-02-21T15:31:27.736Z,10.14
2019-02-21T15:33:54.559Z,10.16
2019-02-21T15:36:21.688Z,10.16
2019-02-21T15:38:48.428Z,10.18
2019-02-21T15:44:24.063Z,10.20
2019-02-21T15:47:11.416Z,10.26
2019-02-21T15:49:39.034Z,10.25
2019-02-21T15:52:09.448Z,10.24
2019-02-21T15:54:36.683Z,10.25
2019-02-21T15:57:03.874Z,10.25
2019-02-21T15:59:31.142Z,10.28
2019-02-21T16:01:58.535Z,10.29
2019-02-21T16:04:26.051Z,10.27
2019-02-21T16:06:53.672Z,10.24
2019-02-21T16:09:20.929Z,10.21
2019-02-21T16:11:48.060Z,10.20
2019-02-21T16:14:15.275Z,10.26
2019-02-21T16:16:42.544Z,10.21
2019-02-21T16:19:10.092Z,10.22
2019-02-21T16:21:37.179Z,10.13
2019-02-21T16:24:04.426Z,10.17
2019-02-21T16:26:31.555Z,10.18
2019-02-21T16:28:58.936Z,10.18
2019-02-21T16:31:26.120Z,10.09
2019-02-21T16:33:53.701Z,10.05
2019-02-21T16:36:20.786Z,10.04
2019-02-21T16:38:48.021Z,9.99
2019-02-21T16:41:15.899Z,9.98
2019-02-21T16:43:43.026Z,9.85
2019-02-21T16:46:10.998Z,9.86
2019-02-21T16:48:38.443Z,9.89
2019-02-21T16:51:06.253Z,9.86
2019-02-21T16:53:33.486Z,9.85
2019-02-21T16:56:00.558Z,9.91
2019-02-21T16:58:27.962Z,9.77
2019-02-21T17:00:56.889Z,9.75
2019-02-21T17:03:23.631Z,9.70
2019-02-21T17:05:50.525Z,9.69
2019-02-21T17:08:17.270Z,9.73
2019-02-21T17:10:44.189Z,9.67
2019-02-21T17:13:11.416Z,9.70
2019-02-21T17:15:38.304Z,9.75
2019-02-21T17:18:05.129Z,9.71
2019-02-21T17:20:51.990Z,9.75
2019-02-21T17:23:38.653Z,9.66
2019-02-21T17:26:24.985Z,9.69
2019-02-21T17:28:51.751Z,9.72
2019-02-21T17:31:18.786Z,9.77
2019-02-21T17:33:45.821Z,9.68
2019-02-21T17:36:12.629Z,9.73
2019-02-21T17:38:39.533Z,9.75
2019-02-21T17:41:06.615Z,9.83
2019-02-21T17:43:33.419Z,9.75
2019-02-21T17:46:00.465Z,9.78
2019-02-21T17:48:27.431Z,9.83
2019-02-21T17:50:54.147Z,9.77
2019-02-21T17:53:20.865Z,9.84
2019-02-21T17:55:47.706Z,9.74
2019-02-21T17:58:17.103Z,9.82
2019-02-21T18:00:43.079Z,9.81
2019-02-21T18:03:10.013Z,9.85
2019-02-21T18:05:36.884Z,9.88
2019-02-21T18:08:03.724Z,9.97
2019-02-21T18:10:30.566Z,9.88
2019-02-21T18:12:57.210Z,9.90
2019-02-21T18:15:24.246Z,9.83
2019-02-21T18:17:51.138Z,9.78
2019-02-21T18:20:17.977Z,9.69
2019-02-21T18:22:44.985Z,9.62
2019-02-21T18:25:15.877Z,9.58
2019-02-21T18:27:42.705Z,9.50
2019-02-21T18:30:29.316Z,9.44
2019-02-21T18:32:56.371Z,9.35
2019-02-21T18:35:23.114Z,9.31
2019-02-21T18:38:02.677Z,9.32
2019-02-21T18:40:29.415Z,9.27
2019-02-21T18:42:56.134Z,9.27
2019-02-21T18:45:43.428Z,9.25
2019-02-21T18:48:10.925Z,9.24
2019-02-21T18:50:38.707Z,9.23
2019-02-21T18:53:07.222Z,9.25
2019-02-21T18:55:34.625Z,9.23
2019-02-21T18:58:01.365Z,9.30
2019-02-21T19:00:30.036Z,9.25
2019-02-21T19:02:57.051Z,9.25
2019-02-21T19:05:34.973Z,9.27
2019-02-21T19:08:00.832Z,9.29
2019-02-21T19:10:21.485Z,9.27
2019-02-21T19:12:48.645Z,9.22
2019-02-21T19:15:56.565Z,9.21
2019-02-21T19:18:24.319Z,9.17
2019-02-21T19:20:51.948Z,9.18
2019-02-21T19:23:18.938Z,9.18
2019-02-21T19:25:45.808Z,9.19
2019-02-21T19:28:13.037Z,9.15
2019-02-21T19:30:43.788Z,9.21
2019-02-21T19:33:10.812Z,9.20
2019-02-21T19:35:38.034Z,9.23
2019-02-21T19:38:10.616Z,9.11
2019-02-21T19:40:33.606Z,9.14
2019-02-21T19:43:00.238Z,9.18
2019-02-21T19:45:26.985Z,9.12
2019-02-21T19:47:53.619Z,9.17
2019-02-21T19:50:40.445Z,9.18
2019-02-21T19:53:07.176Z,9.12
2019-02-21T19:55:34.284Z,9.11
2019-02-21T19:58:01.433Z,9.13
2019-02-21T20:03:18.109Z,9.21
2019-02-21T20:05:45.828Z,9.14
2019-02-21T20:08:20.958Z,9.12
2019-02-21T20:10:42.005Z,9.17
2019-02-21T20:15:57.967Z,9.13
2019-02-21T20:18:24.797Z,9.17
2019-02-21T20:20:52.071Z,9.08
2019-02-21T20:23:19.308Z,9.10
2019-02-21T20:25:46.436Z,9.11
2019-02-21T20:28:13.773Z,9.15
2019-02-21T20:30:40.758Z,9.07
2019-02-21T20:33:07.599Z,9.14
2019-02-21T20:35:34.504Z,9.19
2019-02-21T20:38:02.202Z,9.18
2019-02-21T20:40:29.450Z,9.15
2019-02-21T20:42:56.146Z,9.09
2019-02-21T20:45:24.834Z,9.15
2019-02-21T20:47:52.195Z,9.11
2019-02-21T20:50:19.292Z,9.13
2019-02-21T20:52:46.911Z,9.13
2019-02-21T20:55:43.439Z,9.11
2019-02-21T20:58:04.145Z,9.18
2019-02-21T21:00:50.678Z,9.13
2019-02-21T21:03:17.838Z,9.19
2019-02-21T21:05:45.075Z,9.15
2019-02-21T21:08:11.762Z,9.13
2019-02-21T21:10:38.607Z,9.17
2019-02-21T21:13:05.344Z,9.15
2019-02-21T21:15:32.356Z,9.15
2019-02-21T21:17:59.090Z,9.12
2019-02-21T21:20:26.207Z,9.11
2019-02-21T21:22:53.324Z,9.15
2019-02-21T21:25:20.528Z,9.19
2019-02-21T21:27:47.639Z,9.17
2019-02-21T21:30:14.491Z,9.15
2019-02-21T21:32:41.355Z,9.15
2019-02-21T21:35:08.288Z,9.15
2019-02-21T21:37:35.014Z,9.17
2019-02-21T21:40:02.222Z,9.16
2019-02-21T21:42:29.360Z,9.18
2019-02-21T21:45:09.386Z,9.20
2019-02-21T21:47:36.127Z,9.17
2019-02-21T21:50:03.348Z,9.25
2019-02-21T21:52:30.451Z,9.22
2019-02-21T21:54:57.393Z,9.27
2019-02-21T21:57:24.383Z,9.27
2019-02-21T21:59:51.222Z,9.25
2019-02-21T22:02:17.964Z,9.27
2019-02-21T22:04:44.719Z,9.25
2019-02-21T22:07:11.570Z,9.27
2019-02-21T22:09:38.333Z,9.27
2019-02-21T22:12:05.087Z,9.27
2019-02-21T22:14:31.901Z,9.26
2019-02-21T22:16:58.657Z,9.30
2019-02-21T22:19:25.697Z,9.31
2019-02-21T22:21:52.674Z,9.33
2019-02-21T22:24:19.409Z,9.30
2019-02-21T22:26:46.417Z,9.26
2019-02-21T22:29:13.282Z,9.36
2019-02-21T22:31:40.034Z,9.30
2019-02-21T22:34:07.046Z,9.31
2019-02-21T22:36:34.233Z,9.32
2019-02-21T22:39:02.071Z,9.26
2019-02-21T22:41:29.620Z,9.30
2019-02-21T22:43:56.878Z,9.31
2019-02-21T22:46:23.666Z,9.26
2019-02-21T22:48:50.413Z,9.28
2019-02-21T22:51:17.243Z,9.24
2019-02-21T22:53:44.022Z,9.31
2019-02-21T22:56:10.760Z,9.32
2019-02-21T22:58:44.693Z,9.32
2019-02-21T23:01:27.699Z,9.27
2019-02-21T23:04:12.323Z,9.31
2019-02-21T23:06:55.559Z,9.34
2019-02-21T23:09:27.609Z,9.27
2019-02-21T23:11:53.785Z,9.28
2019-02-21T23:14:20.554Z,9.30
2019-02-21T23:16:47.464Z,9.28
2019-02-21T23:19:15.052Z,9.32
2019-02-21T23:22:01.566Z,9.30
2019-02-21T23:24:29.295Z,9.31
2019-02-21T23:26:56.133Z,9.32
2019-02-21T23:29:22.921Z,9.32
2019-02-21T23:31:49.830Z,9.36
2019-02-21T23:34:36.722Z,9.34
2019-02-21T23:37:03.974Z,9.33
2019-02-21T23:39:38.365Z,9.39
2019-02-21T23:42:00.489Z,9.36
2019-02-21T23:44:28.179Z,9.35
2019-02-21T23:46:55.344Z,9.38
2019-02-21T23:49:22.857Z,9.39
2019-02-21T23:51:49.679Z,9.28
2019-02-21T23:54:16.617Z,9.33
2019-02-21T23:56:43.568Z,9.30
2019-02-21T23:59:11.246Z,9.33
